sensor_id;sensor_type;location;lat;lon;timestamp;temperature;humidity
54168;DHT22;40072;50.958;3.592;2023-02-05T00:02:18;9.20;99.90
54168;DHT22;40072;50.958;3.592;2023-02-05T00:04:44;9.10;99.90
54168;DHT22;40072;50.958;3.592;2023-02-05T00:07:10;9.10;99.90
54168;DHT22;40072;50.958;3.592;2023-02-05T00:09:35;9.00;99.90
54168;DHT22;40072;50.958;3.592;2023-02-05T00:12:01;8.90;99.90
54168;DHT22;40072;50.958;3.592;2023-02-05T00:14:27;8.70;99.90
54168;DHT22;40072;50.958;3.592;2023-02-05T00:16:52;8.70;99.90
54168;DHT22;40072;50.958;3.592;2023-02-05T00:19:18;8.60;99.90
54168;DHT22;40072;50.958;3.592;2023-02-05T00:21:44;8.70;99.90
54168;DHT22;40072;50.958;3.592;2023-02-05T00:24:10;8.80;99.90
54168;DHT22;40072;50.958;3.592;2023-02-05T00:26:36;8.80;99.90
54168;DHT22;40072;50.958;3.592;2023-02-05T00:29:03;8.70;99.90
54168;DHT22;40072;50.958;3.592;2023-02-05T00:31:29;8.70;99.90
54168;DHT22;40072;50.958;3.592;2023-02-05T00:33:55;8.60;99.90
54168;DHT22;40072;50.958;3.592;2023-02-05T00:36:21;8.70;99.90
54168;DHT22;40072;50.958;3.592;2023-02-05T00:38:48;8.70;99.90
54168;DHT22;40072;50.958;3.592;2023-02-05T00:41:14;8.50;99.90
54168;DHT22;40072;50.958;3.592;2023-02-05T00:43:41;8.60;99.90
54168;DHT22;40072;50.958;3.592;2023-02-05T00:46:07;8.70;99.90
54168;DHT22;40072;50.958;3.592;2023-02-05T00:48:33;8.80;99.90
54168;DHT22;40072;50.958;3.592;2023-02-05T00:50:59;8.70;99.90
54168;DHT22;40072;50.958;3.592;2023-02-05T00:53:25;8.50;99.90
54168;DHT22;40072;50.958;3.592;2023-02-05T00:55:51;8.40;99.90
54168;DHT22;40072;50.958;3.592;2023-02-05T00:58:17;8.40;99.90
54168;DHT22;40072;50.958;3.592;2023-02-05T01:00:43;8.30;99.90
54168;DHT22;40072;50.958;3.592;2023-02-05T01:03:09;8.40;99.90
54168;DHT22;40072;50.958;3.592;2023-02-05T01:05:36;8.40;99.90
54168;DHT22;40072;50.958;3.592;2023-02-05T01:08:02;8.40;99.90
54168;DHT22;40072;50.958;3.592;2023-02-05T01:10:27;8.50;99.90
54168;DHT22;40072;50.958;3.592;2023-02-05T01:12:53;8.50;99.90
54168;DHT22;40072;50.958;3.592;2023-02-05T01:15:19;8.20;99.90
54168;DHT22;40072;50.958;3.592;2023-02-05T01:17:45;8.20;99.90
54168;DHT22;40072;50.958;3.592;2023-02-05T01:20:12;8.10;99.90
54168;DHT22;40072;50.958;3.592;2023-02-05T01:22:39;8.10;99.90
54168;DHT22;40072;50.958;3.592;2023-02-05T01:25:05;8.20;99.90
54168;DHT22;40072;50.958;3.592;2023-02-05T01:27:34;8.20;99.90
54168;DHT22;40072;50.958;3.592;2023-02-05T01:30:00;8.30;99.90
54168;DHT22;40072;50.958;3.592;2023-02-05T01:32:27;8.30;99.90
54168;DHT22;40072;50.958;3.592;2023-02-05T01:34:53;8.30;99.90
54168;DHT22;40072;50.958;3.592;2023-02-05T01:37:19;8.30;99.90
54168;DHT22;40072;50.958;3.592;2023-02-05T01:39:44;8.20;99.90
54168;DHT22;40072;50.958;3.592;2023-02-05T01:42:20;8.10;99.90
54168;DHT22;40072;50.958;3.592;2023-02-05T01:48:03;8.20;99.90
54168;DHT22;40072;50.958;3.592;2023-02-05T01:50:35;8.20;99.90
54168;DHT22;40072;50.958;3.592;2023-02-05T01:53:06;8.20;99.90
54168;DHT22;40072;50.958;3.592;2023-02-05T01:55:39;8.30;99.90
54168;DHT22;40072;50.958;3.592;2023-02-05T01:58:06;8.20;99.90
54168;DHT22;40072;50.958;3.592;2023-02-05T02:00:32;8.20;99.90
54168;DHT22;40072;50.958;3.592;2023-02-05T02:02:58;8.20;99.90
54168;DHT22;40072;50.958;3.592;2023-02-05T02:05:24;8.20;99.90
54168;DHT22;40072;50.958;3.592;2023-02-05T02:07:50;8.20;99.90
54168;DHT22;40072;50.958;3.592;2023-02-05T02:10:16;8.10;99.90
54168;DHT22;40072;50.958;3.592;2023-02-05T02:12:44;8.10;99.90
54168;DHT22;40072;50.958;3.592;2023-02-05T02:15:14;8.10;99.90
54168;DHT22;40072;50.958;3.592;2023-02-05T02:17:43;8.10;99.90
54168;DHT22;40072;50.958;3.592;2023-02-05T02:20:31;8.00;99.90
54168;DHT22;40072;50.958;3.592;2023-02-05T02:23:26;8.00;99.90
54168;DHT22;40072;50.958;3.592;2023-02-05T02:28:33;8.00;99.90
54168;DHT22;40072;50.958;3.592;2023-02-05T02:31:27;8.10;99.90
54168;DHT22;40072;50.958;3.592;2023-02-05T02:34:13;8.10;99.90
54168;DHT22;40072;50.958;3.592;2023-02-05T02:39:43;7.90;99.90
54168;DHT22;40072;50.958;3.592;2023-02-05T02:42:16;7.90;99.90
54168;DHT22;40072;50.958;3.592;2023-02-05T02:44:57;8.00;99.90
54168;DHT22;40072;50.958;3.592;2023-02-05T02:47:28;8.00;99.90
54168;DHT22;40072;50.958;3.592;2023-02-05T02:50:02;8.00;99.90
54168;DHT22;40072;50.958;3.592;2023-02-05T02:52:33;8.00;99.90
54168;DHT22;40072;50.958;3.592;2023-02-05T02:55:02;8.00;99.90
54168;DHT22;40072;50.958;3.592;2023-02-05T02:57:32;7.90;99.90
54168;DHT22;40072;50.958;3.592;2023-02-05T03:00:00;7.90;99.90
54168;DHT22;40072;50.958;3.592;2023-02-05T03:02:31;8.00;99.90
54168;DHT22;40072;50.958;3.592;2023-02-05T03:05:03;7.90;99.90
54168;DHT22;40072;50.958;3.592;2023-02-05T03:07:35;7.80;99.90
54168;DHT22;40072;50.958;3.592;2023-02-05T03:10:09;7.80;99.90
54168;DHT22;40072;50.958;3.592;2023-02-05T03:12:37;7.80;99.90
54168;DHT22;40072;50.958;3.592;2023-02-05T03:15:03;7.80;99.90
54168;DHT22;40072;50.958;3.592;2023-02-05T03:17:30;7.90;99.90
54168;DHT22;40072;50.958;3.592;2023-02-05T03:20:00;7.90;99.90
54168;DHT22;40072;50.958;3.592;2023-02-05T03:22:28;8.00;99.90
54168;DHT22;40072;50.958;3.592;2023-02-05T03:24:53;8.00;99.90
54168;DHT22;40072;50.958;3.592;2023-02-05T03:27:20;8.00;99.90
54168;DHT22;40072;50.958;3.592;2023-02-05T03:29:47;7.90;99.90
54168;DHT22;40072;50.958;3.592;2023-02-05T03:32:42;7.90;99.90
54168;DHT22;40072;50.958;3.592;2023-02-05T03:46:28;7.70;99.90
54168;DHT22;40072;50.958;3.592;2023-02-05T03:49:03;7.70;99.90
54168;DHT22;40072;50.958;3.592;2023-02-05T03:51:50;7.70;99.90
54168;DHT22;40072;50.958;3.592;2023-02-05T03:56:56;7.70;99.90
54168;DHT22;40072;50.958;3.592;2023-02-05T03:59:25;7.80;99.90
54168;DHT22;40072;50.958;3.592;2023-02-05T04:01:52;7.70;99.90
54168;DHT22;40072;50.958;3.592;2023-02-05T04:04:19;7.70;99.90
54168;DHT22;40072;50.958;3.592;2023-02-05T04:06:47;7.70;99.90
54168;DHT22;40072;50.958;3.592;2023-02-05T04:09:13;7.80;99.90
54168;DHT22;40072;50.958;3.592;2023-02-05T04:11:39;7.70;99.90
54168;DHT22;40072;50.958;3.592;2023-02-05T04:14:05;7.70;99.90
54168;DHT22;40072;50.958;3.592;2023-02-05T04:16:31;7.70;99.90
54168;DHT22;40072;50.958;3.592;2023-02-05T04:18:56;7.70;99.90
54168;DHT22;40072;50.958;3.592;2023-02-05T04:21:22;7.80;99.90
54168;DHT22;40072;50.958;3.592;2023-02-05T04:23:48;7.90;99.90
54168;DHT22;40072;50.958;3.592;2023-02-05T04:26:13;7.90;99.90
54168;DHT22;40072;50.958;3.592;2023-02-05T04:28:39;7.90;99.90
54168;DHT22;40072;50.958;3.592;2023-02-05T04:31:09;7.80;99.90
54168;DHT22;40072;50.958;3.592;2023-02-05T04:33:35;7.60;99.90
54168;DHT22;40072;50.958;3.592;2023-02-05T04:36:01;7.50;99.90
54168;DHT22;40072;50.958;3.592;2023-02-05T04:38:27;7.50;99.90
54168;DHT22;40072;50.958;3.592;2023-02-05T04:40:53;7.40;99.90
54168;DHT22;40072;50.958;3.592;2023-02-05T04:43:18;7.40;99.90
54168;DHT22;40072;50.958;3.592;2023-02-05T04:45:44;7.50;99.90
54168;DHT22;40072;50.958;3.592;2023-02-05T04:48:10;7.50;99.90
54168;DHT22;40072;50.958;3.592;2023-02-05T04:50:37;7.50;99.90
54168;DHT22;40072;50.958;3.592;2023-02-05T04:53:03;7.50;99.90
54168;DHT22;40072;50.958;3.592;2023-02-05T04:55:29;7.50;99.90
54168;DHT22;40072;50.958;3.592;2023-02-05T04:57:55;7.50;99.90
54168;DHT22;40072;50.958;3.592;2023-02-05T05:00:22;7.50;99.90
54168;DHT22;40072;50.958;3.592;2023-02-05T05:02:47;7.50;99.90
54168;DHT22;40072;50.958;3.592;2023-02-05T05:05:13;7.40;99.90
54168;DHT22;40072;50.958;3.592;2023-02-05T05:07:39;7.40;99.90
54168;DHT22;40072;50.958;3.592;2023-02-05T05:10:05;7.30;99.90
54168;DHT22;40072;50.958;3.592;2023-02-05T05:12:35;7.40;99.90
54168;DHT22;40072;50.958;3.592;2023-02-05T05:15:01;7.50;99.90
54168;DHT22;40072;50.958;3.592;2023-02-05T05:17:27;7.50;99.90
54168;DHT22;40072;50.958;3.592;2023-02-05T05:19:52;7.50;99.90
54168;DHT22;40072;50.958;3.592;2023-02-05T05:22:18;7.40;99.90
54168;DHT22;40072;50.958;3.592;2023-02-05T05:24:44;7.50;99.90
54168;DHT22;40072;50.958;3.592;2023-02-05T05:27:10;7.60;99.90
54168;DHT22;40072;50.958;3.592;2023-02-05T05:29:36;7.60;99.90
54168;DHT22;40072;50.958;3.592;2023-02-05T05:32:02;7.70;99.90
54168;DHT22;40072;50.958;3.592;2023-02-05T05:34:28;7.90;99.90
54168;DHT22;40072;50.958;3.592;2023-02-05T05:36:53;8.00;99.90
54168;DHT22;40072;50.958;3.592;2023-02-05T05:39:20;8.00;99.90
54168;DHT22;40072;50.958;3.592;2023-02-05T05:42:04;8.00;99.90
54168;DHT22;40072;50.958;3.592;2023-02-05T05:44:48;7.90;99.90
54168;DHT22;40072;50.958;3.592;2023-02-05T05:47:17;7.90;99.90
54168;DHT22;40072;50.958;3.592;2023-02-05T05:49:43;7.90;99.90
54168;DHT22;40072;50.958;3.592;2023-02-05T05:52:09;7.90;99.90
54168;DHT22;40072;50.958;3.592;2023-02-05T05:54:35;7.90;99.90
54168;DHT22;40072;50.958;3.592;2023-02-05T05:57:00;7.80;99.90
54168;DHT22;40072;50.958;3.592;2023-02-05T05:59:26;7.80;99.90
54168;DHT22;40072;50.958;3.592;2023-02-05T06:01:52;7.90;99.90
54168;DHT22;40072;50.958;3.592;2023-02-05T06:04:17;8.00;99.90
54168;DHT22;40072;50.958;3.592;2023-02-05T06:06:43;8.00;99.90
54168;DHT22;40072;50.958;3.592;2023-02-05T06:09:09;7.90;99.90
54168;DHT22;40072;50.958;3.592;2023-02-05T06:11:34;8.00;99.90
54168;DHT22;40072;50.958;3.592;2023-02-05T06:14:00;8.00;99.90
54168;DHT22;40072;50.958;3.592;2023-02-05T06:16:26;8.00;99.90
54168;DHT22;40072;50.958;3.592;2023-02-05T06:18:52;8.00;99.90
54168;DHT22;40072;50.958;3.592;2023-02-05T06:21:18;7.90;99.90
54168;DHT22;40072;50.958;3.592;2023-02-05T06:23:43;7.80;99.90
54168;DHT22;40072;50.958;3.592;2023-02-05T06:26:09;7.70;99.90
54168;DHT22;40072;50.958;3.592;2023-02-05T06:28:35;7.60;99.90
54168;DHT22;40072;50.958;3.592;2023-02-05T06:31:00;7.60;99.90
54168;DHT22;40072;50.958;3.592;2023-02-05T06:33:26;7.60;99.90
54168;DHT22;40072;50.958;3.592;2023-02-05T06:35:52;7.50;99.90
54168;DHT22;40072;50.958;3.592;2023-02-05T06:38:17;7.40;99.90
54168;DHT22;40072;50.958;3.592;2023-02-05T06:40:43;7.30;99.90
54168;DHT22;40072;50.958;3.592;2023-02-05T06:43:08;7.30;99.90
54168;DHT22;40072;50.958;3.592;2023-02-05T06:45:34;7.20;99.90
54168;DHT22;40072;50.958;3.592;2023-02-05T06:48:00;7.10;99.90
54168;DHT22;40072;50.958;3.592;2023-02-05T06:50:25;7.00;99.90
54168;DHT22;40072;50.958;3.592;2023-02-05T06:52:51;7.00;99.90
54168;DHT22;40072;50.958;3.592;2023-02-05T06:55:17;6.90;99.90
54168;DHT22;40072;50.958;3.592;2023-02-05T06:57:43;6.90;99.90
54168;DHT22;40072;50.958;3.592;2023-02-05T07:00:09;6.80;99.90
54168;DHT22;40072;50.958;3.592;2023-02-05T07:02:35;6.80;99.90
54168;DHT22;40072;50.958;3.592;2023-02-05T07:05:01;6.80;99.90
54168;DHT22;40072;50.958;3.592;2023-02-05T07:07:27;6.80;99.90
54168;DHT22;40072;50.958;3.592;2023-02-05T07:09:53;6.90;99.90
54168;DHT22;40072;50.958;3.592;2023-02-05T07:12:19;7.10;99.90
54168;DHT22;40072;50.958;3.592;2023-02-05T07:14:44;7.20;99.90
54168;DHT22;40072;50.958;3.592;2023-02-05T07:17:10;7.30;99.90
54168;DHT22;40072;50.958;3.592;2023-02-05T07:19:36;7.20;99.90
54168;DHT22;40072;50.958;3.592;2023-02-05T07:22:03;7.20;99.90
54168;DHT22;40072;50.958;3.592;2023-02-05T07:24:29;7.10;99.90
54168;DHT22;40072;50.958;3.592;2023-02-05T07:26:54;7.20;99.90
54168;DHT22;40072;50.958;3.592;2023-02-05T07:29:20;7.20;99.90
54168;DHT22;40072;50.958;3.592;2023-02-05T07:31:51;7.20;99.90
54168;DHT22;40072;50.958;3.592;2023-02-05T07:34:17;7.20;99.90
54168;DHT22;40072;50.958;3.592;2023-02-05T07:36:43;7.20;99.90
54168;DHT22;40072;50.958;3.592;2023-02-05T07:39:08;7.20;99.90
54168;DHT22;40072;50.958;3.592;2023-02-05T07:41:40;7.20;99.90
54168;DHT22;40072;50.958;3.592;2023-02-05T07:44:05;7.30;99.90
54168;DHT22;40072;50.958;3.592;2023-02-05T07:46:34;7.30;99.90
54168;DHT22;40072;50.958;3.592;2023-02-05T07:49:00;7.50;99.90
54168;DHT22;40072;50.958;3.592;2023-02-05T07:51:26;7.60;99.90
54168;DHT22;40072;50.958;3.592;2023-02-05T07:53:51;7.70;99.90
54168;DHT22;40072;50.958;3.592;2023-02-05T07:56:18;7.80;99.90
54168;DHT22;40072;50.958;3.592;2023-02-05T07:58:46;7.70;99.90
54168;DHT22;40072;50.958;3.592;2023-02-05T08:01:12;7.90;99.90
54168;DHT22;40072;50.958;3.592;2023-02-05T08:03:38;7.90;99.90
54168;DHT22;40072;50.958;3.592;2023-02-05T08:06:06;8.10;99.90
54168;DHT22;40072;50.958;3.592;2023-02-05T08:08:33;8.30;99.90
54168;DHT22;40072;50.958;3.592;2023-02-05T08:11:04;8.70;99.90
54168;DHT22;40072;50.958;3.592;2023-02-05T08:13:30;9.00;99.90
54168;DHT22;40072;50.958;3.592;2023-02-05T08:15:56;9.20;99.90
54168;DHT22;40072;50.958;3.592;2023-02-05T08:18:22;9.30;99.90
54168;DHT22;40072;50.958;3.592;2023-02-05T08:20:52;9.20;99.90
54168;DHT22;40072;50.958;3.592;2023-02-05T08:23:19;9.10;99.90
54168;DHT22;40072;50.958;3.592;2023-02-05T08:25:44;9.00;99.90
54168;DHT22;40072;50.958;3.592;2023-02-05T08:28:10;8.90;99.90
54168;DHT22;40072;50.958;3.592;2023-02-05T08:30:37;8.70;99.90
54168;DHT22;40072;50.958;3.592;2023-02-05T08:33:02;8.60;99.90
54168;DHT22;40072;50.958;3.592;2023-02-05T08:35:28;8.60;99.90
54168;DHT22;40072;50.958;3.592;2023-02-05T08:37:54;8.50;99.90
54168;DHT22;40072;50.958;3.592;2023-02-05T08:40:19;8.30;99.90
54168;DHT22;40072;50.958;3.592;2023-02-05T08:42:45;8.30;99.90
54168;DHT22;40072;50.958;3.592;2023-02-05T08:45:13;8.30;99.90
54168;DHT22;40072;50.958;3.592;2023-02-05T08:47:38;8.30;99.90
54168;DHT22;40072;50.958;3.592;2023-02-05T08:50:05;8.40;99.90
54168;DHT22;40072;50.958;3.592;2023-02-05T08:52:31;8.50;99.90
54168;DHT22;40072;50.958;3.592;2023-02-05T08:54:57;8.50;99.90
54168;DHT22;40072;50.958;3.592;2023-02-05T08:57:29;8.50;99.90
54168;DHT22;40072;50.958;3.592;2023-02-05T08:59:55;8.40;99.90
54168;DHT22;40072;50.958;3.592;2023-02-05T09:02:23;8.40;99.90
54168;DHT22;40072;50.958;3.592;2023-02-05T09:04:49;8.40;99.90
54168;DHT22;40072;50.958;3.592;2023-02-05T09:07:15;8.40;99.90
54168;DHT22;40072;50.958;3.592;2023-02-05T09:09:40;8.40;99.90
54168;DHT22;40072;50.958;3.592;2023-02-05T09:12:06;8.50;99.90
54168;DHT22;40072;50.958;3.592;2023-02-05T09:14:32;8.40;99.90
54168;DHT22;40072;50.958;3.592;2023-02-05T09:17:09;8.60;99.90
54168;DHT22;40072;50.958;3.592;2023-02-05T09:19:36;8.80;99.90
54168;DHT22;40072;50.958;3.592;2023-02-05T09:22:02;9.30;99.90
54168;DHT22;40072;50.958;3.592;2023-02-05T09:24:28;9.90;99.90
54168;DHT22;40072;50.958;3.592;2023-02-05T09:26:54;10.50;99.90
54168;DHT22;40072;50.958;3.592;2023-02-05T09:29:20;10.90;99.90
54168;DHT22;40072;50.958;3.592;2023-02-05T09:31:45;10.80;99.90
54168;DHT22;40072;50.958;3.592;2023-02-05T09:34:12;10.20;99.90
54168;DHT22;40072;50.958;3.592;2023-02-05T09:36:38;10.00;99.90
54168;DHT22;40072;50.958;3.592;2023-02-05T09:39:05;10.00;99.90
54168;DHT22;40072;50.958;3.592;2023-02-05T09:41:58;9.70;99.90
54168;DHT22;40072;50.958;3.592;2023-02-05T09:49:57;9.20;99.90
54168;DHT22;40072;50.958;3.592;2023-02-05T09:52:32;8.90;99.90
54168;DHT22;40072;50.958;3.592;2023-02-05T09:55:01;9.00;99.90
54168;DHT22;40072;50.958;3.592;2023-02-05T09:57:37;9.40;99.90
54168;DHT22;40072;50.958;3.592;2023-02-05T10:05:15;10.70;99.90
54168;DHT22;40072;50.958;3.592;2023-02-05T10:10:43;12.50;99.90
54168;DHT22;40072;50.958;3.592;2023-02-05T10:13:34;13.10;99.90
54168;DHT22;40072;50.958;3.592;2023-02-05T10:27:10;10.10;99.90
54168;DHT22;40072;50.958;3.592;2023-02-05T10:32:55;9.90;99.90
54168;DHT22;40072;50.958;3.592;2023-02-05T10:38:21;9.40;99.90
54168;DHT22;40072;50.958;3.592;2023-02-05T10:40:50;9.30;99.90
54168;DHT22;40072;50.958;3.592;2023-02-05T10:46:08;10.50;99.90
54168;DHT22;40072;50.958;3.592;2023-02-05T10:51:39;13.10;99.90
54168;DHT22;40072;50.958;3.592;2023-02-05T10:54:19;13.40;99.90
54168;DHT22;40072;50.958;3.592;2023-02-05T10:56:48;12.80;99.90
54168;DHT22;40072;50.958;3.592;2023-02-05T10:59:21;12.00;99.90
54168;DHT22;40072;50.958;3.592;2023-02-05T11:01:49;12.10;99.90
54168;DHT22;40072;50.958;3.592;2023-02-05T11:04:23;11.60;99.90
54168;DHT22;40072;50.958;3.592;2023-02-05T11:06:51;11.30;99.90
54168;DHT22;40072;50.958;3.592;2023-02-05T11:12:03;11.20;99.90
54168;DHT22;40072;50.958;3.592;2023-02-05T11:14:36;11.30;99.90
54168;DHT22;40072;50.958;3.592;2023-02-05T11:17:22;11.20;99.90
54168;DHT22;40072;50.958;3.592;2023-02-05T11:20:00;10.90;99.90
54168;DHT22;40072;50.958;3.592;2023-02-05T11:22:32;10.40;99.90
54168;DHT22;40072;50.958;3.592;2023-02-05T11:27:57;11.80;99.90
54168;DHT22;40072;50.958;3.592;2023-02-05T11:30:36;12.50;99.90
54168;DHT22;40072;50.958;3.592;2023-02-05T11:35:52;13.20;99.90
54168;DHT22;40072;50.958;3.592;2023-02-05T11:38:32;12.50;99.90
54168;DHT22;40072;50.958;3.592;2023-02-05T11:41:02;12.30;99.90
54168;DHT22;40072;50.958;3.592;2023-02-05T11:43:45;12.50;99.90
54168;DHT22;40072;50.958;3.592;2023-02-05T11:46:17;12.20;99.90
54168;DHT22;40072;50.958;3.592;2023-02-05T11:49:03;12.80;99.90
54168;DHT22;40072;50.958;3.592;2023-02-05T11:51:39;12.60;99.90
54168;DHT22;40072;50.958;3.592;2023-02-05T11:54:29;12.00;99.90
54168;DHT22;40072;50.958;3.592;2023-02-05T11:59:39;10.90;99.90
54168;DHT22;40072;50.958;3.592;2023-02-05T12:02:29;10.70;99.90
54168;DHT22;40072;50.958;3.592;2023-02-05T12:05:19;10.50;99.90
54168;DHT22;40072;50.958;3.592;2023-02-05T12:07:45;10.80;99.90
54168;DHT22;40072;50.958;3.592;2023-02-05T12:10:18;10.90;99.90
54168;DHT22;40072;50.958;3.592;2023-02-05T12:21:44;10.40;99.90
54168;DHT22;40072;50.958;3.592;2023-02-05T12:26:44;10.60;99.90
54168;DHT22;40072;50.958;3.592;2023-02-05T12:42:56;10.70;99.90
54168;DHT22;40072;50.958;3.592;2023-02-05T12:57:18;11.50;99.90
54168;DHT22;40072;50.958;3.592;2023-02-05T13:00:02;12.80;99.90
54168;DHT22;40072;50.958;3.592;2023-02-05T13:02:53;14.10;99.20
54168;DHT22;40072;50.958;3.592;2023-02-05T13:05:29;15.10;96.60
54168;DHT22;40072;50.958;3.592;2023-02-05T13:08:04;14.70;96.70
54168;DHT22;40072;50.958;3.592;2023-02-05T13:10:52;13.30;98.80
54168;DHT22;40072;50.958;3.592;2023-02-05T13:13:32;12.20;99.90
54168;DHT22;40072;50.958;3.592;2023-02-05T13:16:06;12.00;99.90
54168;DHT22;40072;50.958;3.592;2023-02-05T13:18:38;12.50;99.90
54168;DHT22;40072;50.958;3.592;2023-02-05T13:21:18;12.90;99.90
54168;DHT22;40072;50.958;3.592;2023-02-05T13:24:29;12.90;99.90
54168;DHT22;40072;50.958;3.592;2023-02-05T13:27:47;12.40;99.90
54168;DHT22;40072;50.958;3.592;2023-02-05T13:30:44;12.70;99.90
54168;DHT22;40072;50.958;3.592;2023-02-05T13:33:11;12.20;99.90
54168;DHT22;40072;50.958;3.592;2023-02-05T13:36:20;12.90;99.90
54168;DHT22;40072;50.958;3.592;2023-02-05T13:58:50;14.30;97.70
54168;DHT22;40072;50.958;3.592;2023-02-05T14:01:23;15.10;96.00
54168;DHT22;40072;50.958;3.592;2023-02-05T14:04:02;15.30;94.90
54168;DHT22;40072;50.958;3.592;2023-02-05T14:06:35;14.70;95.10
54168;DHT22;40072;50.958;3.592;2023-02-05T14:09:23;13.50;96.50
54168;DHT22;40072;50.958;3.592;2023-02-05T14:11:55;12.50;98.10
54168;DHT22;40072;50.958;3.592;2023-02-05T14:16:57;11.80;99.90
54168;DHT22;40072;50.958;3.592;2023-02-05T14:22:36;11.10;99.90
54168;DHT22;40072;50.958;3.592;2023-02-05T14:25:42;10.80;99.90
54168;DHT22;40072;50.958;3.592;2023-02-05T14:27:50;10.80;99.90
54168;DHT22;40072;50.958;3.592;2023-02-05T14:32:57;11.80;99.90
54168;DHT22;40072;50.958;3.592;2023-02-05T14:35:29;12.50;99.90
54168;DHT22;40072;50.958;3.592;2023-02-05T14:38:15;13.40;97.90
54168;DHT22;40072;50.958;3.592;2023-02-05T14:40:41;13.30;98.00
54168;DHT22;40072;50.958;3.592;2023-02-05T14:43:31;12.90;98.60
54168;DHT22;40072;50.958;3.592;2023-02-05T14:46:01;12.60;99.40
54168;DHT22;40072;50.958;3.592;2023-02-05T14:48:31;11.90;99.90
54168;DHT22;40072;50.958;3.592;2023-02-05T14:51:19;12.00;99.90
54168;DHT22;40072;50.958;3.592;2023-02-05T14:54:17;12.00;99.90
54168;DHT22;40072;50.958;3.592;2023-02-05T14:56:52;11.30;99.90
54168;DHT22;40072;50.958;3.592;2023-02-05T14:59:28;11.10;99.90
54168;DHT22;40072;50.958;3.592;2023-02-05T15:01:56;10.80;99.90
54168;DHT22;40072;50.958;3.592;2023-02-05T15:04:43;10.60;99.90
54168;DHT22;40072;50.958;3.592;2023-02-05T15:07:21;10.30;99.90
54168;DHT22;40072;50.958;3.592;2023-02-05T15:10:15;10.20;99.90
54168;DHT22;40072;50.958;3.592;2023-02-05T15:12:59;9.80;99.90
54168;DHT22;40072;50.958;3.592;2023-02-05T15:15:34;9.40;99.90
54168;DHT22;40072;50.958;3.592;2023-02-05T15:18:23;9.20;99.90
54168;DHT22;40072;50.958;3.592;2023-02-05T15:20:52;9.20;99.90
54168;DHT22;40072;50.958;3.592;2023-02-05T15:23:28;9.20;99.90
54168;DHT22;40072;50.958;3.592;2023-02-05T15:26:03;9.30;99.90
54168;DHT22;40072;50.958;3.592;2023-02-05T15:31:14;9.50;99.90
54168;DHT22;40072;50.958;3.592;2023-02-05T15:36:17;9.10;99.90
54168;DHT22;40072;50.958;3.592;2023-02-05T15:38:51;9.20;99.90
54168;DHT22;40072;50.958;3.592;2023-02-05T15:41:19;9.20;99.90
54168;DHT22;40072;50.958;3.592;2023-02-05T15:44:02;9.10;99.90
54168;DHT22;40072;50.958;3.592;2023-02-05T15:46:30;9.00;99.90
54168;DHT22;40072;50.958;3.592;2023-02-05T15:48:57;9.00;99.90
54168;DHT22;40072;50.958;3.592;2023-02-05T15:51:30;8.80;99.90
54168;DHT22;40072;50.958;3.592;2023-02-05T15:53:59;8.70;99.90
54168;DHT22;40072;50.958;3.592;2023-02-05T15:59:28;8.60;99.90
54168;DHT22;40072;50.958;3.592;2023-02-05T16:02:14;8.50;99.90
54168;DHT22;40072;50.958;3.592;2023-02-05T16:04:43;8.40;99.90
54168;DHT22;40072;50.958;3.592;2023-02-05T16:07:21;8.40;99.90
54168;DHT22;40072;50.958;3.592;2023-02-05T16:09:50;8.40;99.90
54168;DHT22;40072;50.958;3.592;2023-02-05T16:12:16;8.40;99.90
54168;DHT22;40072;50.958;3.592;2023-02-05T16:14:41;8.40;99.90
54168;DHT22;40072;50.958;3.592;2023-02-05T16:17:19;8.30;99.90
54168;DHT22;40072;50.958;3.592;2023-02-05T16:22:43;8.30;99.90
54168;DHT22;40072;50.958;3.592;2023-02-05T16:28:11;8.20;99.90
54168;DHT22;40072;50.958;3.592;2023-02-05T16:30:41;8.20;99.90
54168;DHT22;40072;50.958;3.592;2023-02-05T16:33:38;8.20;99.90
54168;DHT22;40072;50.958;3.592;2023-02-05T16:36:06;8.20;99.90
54168;DHT22;40072;50.958;3.592;2023-02-05T16:38:39;8.20;99.90
54168;DHT22;40072;50.958;3.592;2023-02-05T16:41:21;8.10;99.90
54168;DHT22;40072;50.958;3.592;2023-02-05T16:43:47;8.10;99.90
54168;DHT22;40072;50.958;3.592;2023-02-05T16:57:07;7.50;99.90
54168;DHT22;40072;50.958;3.592;2023-02-05T16:59:47;7.50;99.90
54168;DHT22;40072;50.958;3.592;2023-02-05T17:02:29;7.40;99.90
54168;DHT22;40072;50.958;3.592;2023-02-05T17:04:56;7.30;99.90
54168;DHT22;40072;50.958;3.592;2023-02-05T17:07:23;7.30;99.90
54168;DHT22;40072;50.958;3.592;2023-02-05T17:09:49;7.30;99.90
54168;DHT22;40072;50.958;3.592;2023-02-05T17:15:39;7.30;99.90
54168;DHT22;40072;50.958;3.592;2023-02-05T17:17:51;7.20;99.90
54168;DHT22;40072;50.958;3.592;2023-02-05T17:20:23;7.10;99.90
54168;DHT22;40072;50.958;3.592;2023-02-05T17:23:10;7.00;99.90
54168;DHT22;40072;50.958;3.592;2023-02-05T17:28:12;7.00;99.90
54168;DHT22;40072;50.958;3.592;2023-02-05T17:30:41;7.00;99.90
54168;DHT22;40072;50.958;3.592;2023-02-05T17:33:15;6.90;99.90
54168;DHT22;40072;50.958;3.592;2023-02-05T17:35:41;6.90;99.90
54168;DHT22;40072;50.958;3.592;2023-02-05T17:38:07;6.90;99.90
54168;DHT22;40072;50.958;3.592;2023-02-05T17:40:33;6.80;99.90
54168;DHT22;40072;50.958;3.592;2023-02-05T17:42:58;6.90;99.90
54168;DHT22;40072;50.958;3.592;2023-02-05T17:45:28;6.90;99.90
54168;DHT22;40072;50.958;3.592;2023-02-05T17:47:54;6.90;99.90
54168;DHT22;40072;50.958;3.592;2023-02-05T17:50:20;6.90;99.90
54168;DHT22;40072;50.958;3.592;2023-02-05T17:52:46;6.80;99.90
54168;DHT22;40072;50.958;3.592;2023-02-05T17:55:17;6.80;99.90
54168;DHT22;40072;50.958;3.592;2023-02-05T17:57:43;6.90;99.90
54168;DHT22;40072;50.958;3.592;2023-02-05T18:00:18;6.90;99.90
54168;DHT22;40072;50.958;3.592;2023-02-05T18:02:44;6.80;99.90
54168;DHT22;40072;50.958;3.592;2023-02-05T18:05:10;6.80;99.90
54168;DHT22;40072;50.958;3.592;2023-02-05T18:07:45;6.70;99.90
54168;DHT22;40072;50.958;3.592;2023-02-05T18:10:15;6.80;99.90
54168;DHT22;40072;50.958;3.592;2023-02-05T18:12:41;6.70;99.90
54168;DHT22;40072;50.958;3.592;2023-02-05T18:15:08;6.60;99.90
54168;DHT22;40072;50.958;3.592;2023-02-05T18:17:34;6.60;99.90
54168;DHT22;40072;50.958;3.592;2023-02-05T18:20:00;6.50;99.90
54168;DHT22;40072;50.958;3.592;2023-02-05T18:22:27;6.50;99.90
54168;DHT22;40072;50.958;3.592;2023-02-05T18:24:52;6.60;99.90
54168;DHT22;40072;50.958;3.592;2023-02-05T18:27:18;6.60;99.90
54168;DHT22;40072;50.958;3.592;2023-02-05T18:29:44;6.50;99.90
54168;DHT22;40072;50.958;3.592;2023-02-05T18:32:10;6.60;99.90
54168;DHT22;40072;50.958;3.592;2023-02-05T18:34:35;6.50;99.90
54168;DHT22;40072;50.958;3.592;2023-02-05T18:37:01;6.50;99.90
54168;DHT22;40072;50.958;3.592;2023-02-05T18:39:27;6.50;99.90
54168;DHT22;40072;50.958;3.592;2023-02-05T18:41:54;6.60;99.90
54168;DHT22;40072;50.958;3.592;2023-02-05T18:44:20;6.60;99.90
54168;DHT22;40072;50.958;3.592;2023-02-05T18:46:46;6.60;99.90
54168;DHT22;40072;50.958;3.592;2023-02-05T18:49:11;6.50;99.90